createdAt,value
2023-01-24T00:02:40.033Z,81.19
2023-01-24T00:06:04.075Z,81.14
2023-01-24T00:09:25.878Z,80.21
2023-01-24T00:12:47.459Z,81.37
2023-01-24T00:16:11.236Z,81.22
2023-01-24T00:19:32.849Z,80.70
2023-01-24T00:22:54.469Z,80.39
2023-01-24T00:26:16.988Z,80.95
2023-01-24T00:29:38.595Z,80.58
2023-01-24T00:33:00.260Z,80.38
2023-01-24T00:36:21.834Z,79.64
2023-01-24T00:39:43.447Z,80.20
2023-01-24T00:43:05.126Z,80.39
2023-01-24T00:46:27.817Z,79.03
2023-01-24T00:49:49.456Z,79.09
2023-01-24T00:53:11.277Z,79.39
2023-01-24T00:56:35.636Z,79.60
2023-01-24T00:59:57.289Z,79.53
2023-01-24T01:03:20.343Z,79.74
2023-01-24T01:06:42.113Z,79.81
2023-01-24T01:10:04.795Z,79.98
2023-01-24T01:13:27.413Z,80.39
2023-01-24T01:16:49.022Z,80.21
2023-01-24T01:20:11.333Z,80.63
2023-01-24T01:23:33.424Z,80.20
2023-01-24T01:26:55.049Z,79.74
2023-01-24T01:30:16.953Z,80.06
2023-01-24T01:33:40.821Z,79.64
2023-01-24T01:37:04.610Z,80.31
2023-01-24T01:40:26.507Z,80.65
2023-01-24T01:44:09.154Z,80.44
2023-01-24T01:47:35.039Z,79.96
2023-01-24T01:51:04.668Z,79.48
2023-01-24T01:54:35.917Z,80.16
2023-01-24T01:57:58.551Z,80.36
2023-01-24T02:01:20.672Z,80.77
2023-01-24T02:04:47.856Z,80.88
2023-01-24T02:08:14.304Z,81.65
2023-01-24T02:11:40.209Z,82.05
2023-01-24T02:15:27.777Z,81.39
2023-01-24T02:18:49.367Z,80.72
2023-01-24T02:22:23.229Z,80.47
2023-01-24T02:26:06.016Z,80.20
2023-01-24T02:29:27.893Z,80.33
2023-01-24T02:32:51.668Z,80.67
2023-01-24T02:36:20.381Z,80.31
2023-01-24T02:39:46.877Z,81.20
2023-01-24T02:43:11.315Z,81.29
2023-01-24T02:46:37.377Z,80.19
2023-01-24T02:50:01.110Z,80.18
2023-01-24T02:53:32.231Z,80.22
2023-01-24T02:57:12.468Z,79.69
2023-01-24T03:00:40.107Z,80.29
2023-01-24T03:04:02.177Z,79.17
2023-01-24T03:07:26.025Z,78.79
2023-01-24T03:10:47.909Z,79.05
2023-01-24T03:14:28.251Z,79.24
2023-01-24T03:18:08.533Z,79.63
2023-01-24T03:21:48.448Z,79.10
2023-01-24T03:25:28.749Z,79.38
2023-01-24T03:29:08.523Z,78.52
2023-01-24T03:32:48.826Z,78.71
2023-01-24T03:36:14.416Z,78.58
2023-01-24T03:39:54.531Z,78.26
2023-01-24T03:43:16.099Z,78.11
2023-01-24T03:46:41.110Z,77.66
2023-01-24T03:50:21.449Z,78.27
2023-01-24T03:53:46.503Z,78.12
2023-01-24T03:57:08.094Z,77.45
2023-01-24T04:00:29.791Z,78.19
2023-01-24T04:03:51.465Z,78.38
2023-01-24T04:07:25.614Z,77.89
2023-01-24T04:10:50.977Z,77.85
2023-01-24T04:14:12.574Z,77.22
2023-01-24T04:17:36.702Z,78.77
2023-01-24T04:21:02.705Z,79.07
2023-01-24T04:24:24.412Z,79.45
2023-01-24T04:27:46.469Z,80.18
2023-01-24T04:31:09.899Z,80.10
2023-01-24T04:34:31.584Z,78.97
2023-01-24T04:37:53.735Z,78.55
2023-01-24T04:41:15.309Z,79.48
2023-01-24T04:44:40.498Z,79.69
2023-01-24T04:48:02.130Z,79.86
2023-01-24T04:51:23.955Z,79.98
2023-01-24T04:54:45.693Z,80.96
2023-01-24T04:58:07.310Z,81.35
2023-01-24T05:01:29.009Z,80.51
2023-01-24T05:04:50.582Z,80.53
2023-01-24T05:08:12.360Z,80.62
2023-01-24T05:11:34.086Z,80.50
2023-01-24T05:14:55.667Z,80.37
2023-01-24T05:18:18.684Z,80.85
2023-01-24T05:21:40.412Z,80.63
2023-01-24T05:25:02.483Z,80.15
2023-01-24T05:28:24.070Z,79.21
2023-01-24T05:31:45.888Z,80.02
2023-01-24T05:35:08.596Z,80.10
2023-01-24T05:38:30.493Z,78.91
2023-01-24T05:41:54.572Z,79.40
2023-01-24T05:45:16.197Z,80.49
2023-01-24T05:48:38.076Z,80.89
2023-01-24T05:51:59.653Z,80.83
2023-01-24T05:55:21.604Z,81.31
2023-01-24T05:58:45.163Z,81.43
2023-01-24T06:02:06.844Z,81.16
2023-01-24T06:05:28.456Z,81.14
2023-01-24T06:08:51.396Z,81.12
2023-01-24T06:12:13.041Z,81.47
2023-01-24T06:15:35.742Z,81.22
2023-01-24T06:18:57.948Z,81.40
2023-01-24T06:22:36.149Z,80.62
2023-01-24T06:25:58.022Z,79.67
2023-01-24T06:29:21.556Z,79.28
2023-01-24T06:33:16.550Z,79.95
2023-01-24T06:36:56.263Z,80.77
2023-01-24T06:40:21.923Z,80.70
2023-01-24T06:43:46.676Z,80.94
2023-01-24T06:47:11.416Z,81.59
2023-01-24T06:50:33.637Z,80.51
2023-01-24T06:53:55.246Z,80.84
2023-01-24T06:57:16.966Z,81.37
2023-01-24T07:00:38.608Z,81.61
2023-01-24T07:04:00.296Z,81.07
2023-01-24T07:07:22.026Z,81.79
2023-01-24T07:10:43.822Z,82.27
2023-01-24T07:14:05.549Z,82.85
2023-01-24T07:17:30.386Z,81.69
2023-01-24T07:20:57.579Z,81.68
2023-01-24T07:24:22.538Z,80.73
2023-01-24T07:27:44.645Z,81.28
2023-01-24T07:31:07.286Z,81.88
2023-01-24T07:34:28.924Z,80.72
2023-01-24T07:37:50.580Z,80.80
2023-01-24T07:41:12.189Z,80.14
2023-01-24T07:44:33.810Z,89.84
2023-01-24T07:47:57.794Z,91.16
2023-01-24T07:51:19.428Z,86.93
2023-01-24T07:54:41.076Z,80.61
2023-01-24T07:58:03.618Z,78.81
2023-01-24T08:01:26.224Z,79.30
2023-01-24T08:04:47.820Z,73.05
2023-01-24T08:08:11.621Z,73.22
2023-01-24T08:11:34.204Z,73.86
2023-01-24T08:14:55.875Z,74.37
2023-01-24T08:18:18.807Z,74.98
2023-01-24T08:21:40.373Z,74.41
2023-01-24T08:25:02.126Z,72.99
2023-01-24T08:28:26.269Z,72.74
2023-01-24T08:31:49.419Z,71.13
2023-01-24T08:35:16.295Z,69.50
2023-01-24T08:38:40.403Z,69.13
2023-01-24T08:42:02.027Z,69.49
2023-01-24T08:45:23.799Z,69.09
2023-01-24T08:48:45.495Z,76.85
2023-01-24T08:52:07.227Z,73.88
2023-01-24T08:55:28.847Z,71.97
2023-01-24T08:58:50.558Z,70.43
2023-01-24T09:02:17.278Z,70.24
2023-01-24T09:05:39.704Z,70.54
2023-01-24T09:09:01.391Z,70.66
2023-01-24T09:12:23.100Z,64.41
2023-01-24T09:15:45.150Z,65.38
2023-01-24T09:19:07.205Z,66.34
2023-01-24T09:22:31.305Z,66.78
2023-01-24T09:25:53.573Z,68.06
2023-01-24T09:29:15.161Z,68.51
2023-01-24T09:32:37.472Z,69.17
2023-01-24T09:36:01.132Z,68.99
2023-01-24T09:39:22.836Z,68.95
2023-01-24T09:42:56.794Z,68.30
2023-01-24T09:46:45.942Z,66.07
2023-01-24T09:50:16.850Z,64.64
2023-01-24T09:53:42.987Z,63.51
2023-01-24T09:57:18.880Z,61.14
2023-01-24T10:00:40.583Z,61.75
2023-01-24T10:04:02.209Z,61.97
2023-01-24T10:07:29.149Z,72.71
2023-01-24T10:11:28.069Z,71.71
2023-01-24T10:15:07.580Z,66.65
2023-01-24T10:18:51.673Z,60.45
2023-01-24T10:22:25.170Z,61.21
2023-01-24T10:25:51.833Z,58.83
2023-01-24T10:29:21.695Z,54.48
2023-01-24T10:32:44.981Z,52.78
2023-01-24T10:36:27.678Z,52.00
2023-01-24T10:39:50.013Z,53.17
2023-01-24T10:43:11.642Z,55.11
2023-01-24T10:46:33.170Z,56.62
2023-01-24T10:50:00.124Z,57.93
2023-01-24T10:53:30.361Z,58.98
2023-01-24T10:56:52.840Z,60.10
2023-01-24T11:00:20.568Z,63.52
2023-01-24T11:03:45.445Z,65.71
2023-01-24T11:07:24.708Z,61.73
2023-01-24T11:10:46.756Z,62.12
2023-01-24T11:14:14.613Z,62.91
2023-01-24T11:17:40.273Z,62.05
2023-01-24T11:21:21.144Z,61.91
2023-01-24T11:24:47.193Z,63.19
2023-01-24T11:28:24.422Z,56.73
2023-01-24T11:31:55.912Z,56.36
2023-01-24T11:35:33.492Z,57.58
2023-01-24T11:38:57.897Z,58.50
2023-01-24T11:42:46.425Z,59.75
2023-01-24T11:46:10.892Z,60.13
2023-01-24T11:49:40.890Z,60.06
2023-01-24T11:53:21.252Z,60.39
2023-01-24T11:56:55.829Z,64.73
2023-01-24T12:00:36.152Z,65.15
2023-01-24T12:04:32.197Z,62.36
2023-01-24T12:08:12.622Z,58.59
2023-01-24T12:11:44.433Z,57.39
2023-01-24T12:15:25.706Z,55.31
2023-01-24T12:19:07.871Z,57.02
2023-01-24T12:22:30.938Z,55.20
2023-01-24T12:25:54.295Z,48.37
2023-01-24T12:29:43.982Z,50.22
2023-01-24T12:33:22.286Z,49.70
2023-01-24T12:37:07.799Z,50.21
2023-01-24T12:40:52.002Z,51.95
2023-01-24T12:44:34.898Z,53.87
2023-01-24T12:48:10.566Z,55.75
2023-01-24T12:51:47.568Z,55.26
2023-01-24T12:55:12.244Z,57.12
2023-01-24T12:58:41.148Z,58.04
2023-01-24T13:02:27.574Z,65.14
2023-01-24T13:06:00.678Z,64.53
2023-01-24T13:09:31.469Z,63.16
2023-01-24T13:12:54.545Z,62.57
2023-01-24T13:16:31.393Z,62.89
2023-01-24T13:19:53.005Z,62.85
2023-01-24T13:23:31.658Z,62.25
2023-01-24T13:27:10.175Z,57.51
2023-01-24T13:30:55.373Z,58.34
2023-01-24T13:34:20.252Z,59.65
2023-01-24T13:37:41.909Z,60.48
2023-01-24T13:41:07.717Z,60.44
2023-01-24T13:44:33.368Z,59.71
2023-01-24T13:47:55.213Z,59.94
2023-01-24T13:51:31.497Z,60.69
2023-01-24T13:54:55.322Z,60.90
2023-01-24T13:58:24.351Z,61.15
2023-01-24T14:01:47.523Z,68.80
2023-01-24T14:05:30.783Z,68.12
2023-01-24T14:09:06.796Z,66.36
2023-01-24T14:12:30.057Z,65.18
2023-01-24T14:15:54.471Z,65.54
2023-01-24T14:19:20.953Z,65.77
2023-01-24T14:22:47.158Z,66.18
2023-01-24T14:26:15.577Z,67.21
2023-01-24T14:29:43.424Z,59.96
2023-01-24T14:33:25.342Z,61.52
2023-01-24T14:37:00.919Z,63.11
2023-01-24T14:40:26.959Z,64.95
2023-01-24T14:43:55.923Z,66.14
2023-01-24T14:47:20.956Z,66.91
2023-01-24T14:50:57.459Z,67.86
2023-01-24T14:54:26.313Z,68.19
2023-01-24T14:57:50.576Z,68.83
2023-01-24T15:01:31.799Z,71.75
2023-01-24T15:04:53.586Z,69.56
2023-01-24T15:08:18.635Z,83.49
2023-01-24T15:11:42.700Z,80.21
2023-01-24T15:15:05.425Z,75.73
2023-01-24T15:18:41.405Z,75.28
2023-01-24T15:22:03.363Z,74.17
2023-01-24T15:25:37.812Z,72.71
2023-01-24T15:28:59.471Z,71.88
2023-01-24T15:32:31.833Z,70.42
2023-01-24T15:35:54.043Z,70.21
2023-01-24T15:39:16.757Z,71.00
2023-01-24T15:42:56.729Z,71.46
2023-01-24T15:46:48.882Z,72.11
2023-01-24T15:50:41.234Z,72.07
2023-01-24T15:54:09.072Z,73.06
2023-01-24T15:57:35.903Z,73.55
2023-01-24T16:00:59.709Z,74.80
2023-01-24T16:04:23.574Z,73.90
2023-01-24T16:07:47.483Z,74.68
2023-01-24T16:11:10.246Z,74.98
2023-01-24T16:14:32.249Z,74.78
2023-01-24T16:17:53.785Z,74.95
2023-01-24T16:21:15.396Z,76.12
2023-01-24T16:24:36.979Z,76.55
2023-01-24T16:27:58.568Z,75.65
2023-01-24T16:31:20.262Z,77.21
2023-01-24T16:34:42.222Z,76.73
2023-01-24T16:38:06.052Z,75.87
2023-01-24T16:41:27.630Z,77.11
2023-01-24T16:44:58.026Z,76.91
2023-01-24T16:48:19.661Z,70.14
2023-01-24T16:51:43.705Z,67.04
2023-01-24T16:55:06.949Z,69.20
2023-01-24T16:58:33.828Z,71.44
2023-01-24T17:01:58.026Z,73.50
2023-01-24T17:05:19.645Z,73.71
2023-01-24T17:08:41.407Z,74.49
2023-01-24T17:12:14.236Z,74.98
2023-01-24T17:15:37.776Z,75.39
2023-01-24T17:19:01.768Z,75.93
2023-01-24T17:22:23.421Z,75.57
2023-01-24T17:25:47.214Z,75.79
2023-01-24T17:29:09.787Z,75.32
2023-01-24T17:32:39.009Z,75.74
2023-01-24T17:36:03.353Z,75.54
2023-01-24T17:39:24.947Z,76.02
2023-01-24T17:42:48.975Z,76.43
2023-01-24T17:46:10.840Z,76.29
2023-01-24T17:49:32.419Z,76.81
2023-01-24T17:52:53.961Z,76.52
2023-01-24T17:56:17.026Z,75.67
2023-01-24T17:59:40.855Z,76.13
2023-01-24T18:03:05.222Z,76.62
2023-01-24T18:06:29.088Z,77.00
2023-01-24T18:09:50.804Z,78.15
2023-01-24T18:13:17.159Z,77.31
2023-01-24T18:16:38.897Z,76.43
2023-01-24T18:20:04.158Z,76.93
2023-01-24T18:23:27.560Z,75.47
2023-01-24T18:26:49.157Z,75.36
2023-01-24T18:30:13.717Z,75.95
2023-01-24T18:33:38.086Z,76.75
2023-01-24T18:37:00.036Z,76.36
2023-01-24T18:40:21.773Z,76.53
2023-01-24T18:43:43.529Z,76.75
2023-01-24T18:47:09.979Z,77.25
2023-01-24T18:50:32.483Z,76.40
2023-01-24T18:53:54.929Z,75.09
2023-01-24T18:57:16.556Z,74.97
2023-01-24T19:00:42.474Z,75.01
2023-01-24T19:04:05.301Z,74.96
2023-01-24T19:07:26.839Z,75.06
2023-01-24T19:10:50.799Z,74.92
2023-01-24T19:14:13.837Z,74.29
2023-01-24T19:17:37.939Z,74.20
2023-01-24T19:21:10.732Z,75.00
2023-01-24T19:24:33.375Z,75.68
2023-01-24T19:27:54.975Z,75.74
2023-01-24T19:31:16.641Z,75.82
2023-01-24T19:34:38.242Z,76.11
2023-01-24T19:38:00.225Z,90.84
2023-01-24T19:41:22.944Z,88.45
2023-01-24T19:44:46.751Z,86.59
2023-01-24T19:48:10.315Z,78.72
2023-01-24T19:51:34.889Z,79.25
2023-01-24T19:54:59.022Z,79.66
2023-01-24T19:58:20.637Z,73.41
2023-01-24T20:01:42.347Z,74.17
2023-01-24T20:05:04.184Z,74.47
2023-01-24T20:08:25.743Z,74.28
2023-01-24T20:11:47.401Z,75.74
2023-01-24T20:15:10.008Z,75.53
2023-01-24T20:18:31.807Z,74.95
2023-01-24T20:21:53.459Z,75.43
2023-01-24T20:25:19.425Z,76.41
2023-01-24T20:28:42.638Z,76.10
2023-01-24T20:32:12.063Z,75.57
2023-01-24T20:35:34.339Z,75.80
2023-01-24T20:38:58.627Z,75.50
2023-01-24T20:42:20.174Z,77.04
2023-01-24T20:45:42.217Z,76.40
2023-01-24T20:49:06.235Z,77.25
2023-01-24T20:52:27.865Z,89.83
2023-01-24T20:55:57.451Z,90.49
2023-01-24T20:59:19.097Z,87.73
2023-01-24T21:02:43.173Z,80.24
2023-01-24T21:06:11.213Z,80.69
2023-01-24T21:09:32.752Z,73.88
2023-01-24T21:12:56.706Z,73.54
2023-01-24T21:16:20.591Z,74.22
2023-01-24T21:19:43.252Z,74.27
2023-01-24T21:23:04.927Z,75.16
2023-01-24T21:26:29.136Z,76.57
2023-01-24T21:29:50.809Z,77.77
2023-01-24T21:33:12.526Z,78.32
2023-01-24T21:36:37.198Z,76.93
2023-01-24T21:40:02.003Z,77.17
2023-01-24T21:43:25.933Z,76.35
2023-01-24T21:46:47.852Z,77.57
2023-01-24T21:50:10.393Z,78.97
2023-01-24T21:53:50.581Z,78.88
2023-01-24T21:57:33.515Z,77.92
2023-01-24T22:00:55.378Z,76.36
2023-01-24T22:04:18.299Z,77.79
2023-01-24T22:07:40.052Z,79.31
2023-01-24T22:11:05.478Z,79.52
2023-01-24T22:14:31.564Z,80.37
2023-01-24T22:17:55.789Z,80.48
2023-01-24T22:21:27.217Z,80.54
2023-01-24T22:25:00.689Z,80.32
2023-01-24T22:28:22.693Z,78.90
2023-01-24T22:31:47.080Z,78.09
2023-01-24T22:35:13.949Z,77.16
2023-01-24T22:38:38.572Z,77.41
2023-01-24T22:42:00.653Z,78.59
2023-01-24T22:45:24.542Z,80.21
2023-01-24T22:48:46.269Z,79.89
2023-01-24T22:52:10.305Z,79.85
2023-01-24T22:55:34.997Z,78.50
2023-01-24T22:58:59.550Z,79.66
2023-01-24T23:02:21.157Z,80.24
2023-01-24T23:05:43.022Z,79.11
2023-01-24T23:09:04.788Z,78.23
2023-01-24T23:12:44.929Z,78.33
2023-01-24T23:16:14.903Z,77.64
2023-01-24T23:20:00.481Z,78.13
2023-01-24T23:23:22.134Z,77.45
2023-01-24T23:26:43.885Z,77.14
2023-01-24T23:30:08.570Z,77.99
2023-01-24T23:33:35.353Z,78.43
2023-01-24T23:36:59.234Z,79.47
2023-01-24T23:40:20.840Z,79.94
2023-01-24T23:43:42.520Z,80.72
2023-01-24T23:47:04.116Z,78.87
2023-01-24T23:50:25.942Z,78.20
2023-01-24T23:53:50.866Z,77.59
2023-01-24T23:57:12.913Z,78.04
